Latest Weather Observations for Willis Island

IDQ60801

Issued at 6:35 pm EST Sunday 20 April 2014 (issued every 30 minutes, with the page automatically refreshed every 10 minutes)

About weather observations | Map of weather stations | Latest weather observations for QLD | Other Formats
Station Details ID: 200283 Name: WILLIS ISLAND Lat: -16.29 Lon: 149.97 Height: 9.29 m
Data from the previous 72 hours. | See also: Recent months at Willis Island
Date/Time
EST
Temp
°C
App
Temp
°C
Dew
Point
Rel
Hum
%
Delta-T
°C
Wind Press
QNH
hPa
Press
MSL
hPa
Rain
since 9 am
mm
Dir
 
Spd
km/h
Gust
km/h
Spd
kts
Gust
kts
20/06:30pm 25.3 22.0 22.6 85 1.8 SE 44 50 24 27 1013.2 - 0.2
20/06:00pm 25.4 23.0 22.6 84 1.9 SE 39 46 21 25 1012.8 1012.8 0.2
20/05:30pm 25.1 22.4 22.7 86 1.6 SE 41 46 22 25 1012.6 - 0.2
20/05:00pm 25.6 22.7 22.3 82 2.2 SE 41 46 22 25 1012.3 - 0.2
20/04:30pm 26.0 23.0 23.1 84 2.0 ESE 44 52 24 28 1011.9 - 0.2
20/04:00pm 26.2 23.3 23.0 82 2.2 ESE 43 50 23 27 1011.5 - 0.2
20/03:32pm 26.1 24.1 23.2 84 2.0 ESE 39 44 21 24 1011.4 - 0.2
20/03:30pm 26.0 25.2 23.4 85 1.8 SE 33 39 18 21 1011.4 - 0.2
20/03:00pm 25.8 25.2 23.3 86 1.7 SE 32 37 17 20 1011.3 1011.3 0.2
20/02:30pm 24.8 22.5 23.3 91 1.0 ESE 41 52 22 28 1011.4 - 0.2
20/02:19pm 25.3 24.4 23.1 87 1.5 ESE 33 52 18 28 1011.4 - 0.2
20/02:00pm 26.5 23.1 22.0 76 3.0 E 43 50 23 27 1011.4 - 0.0
20/01:30pm 27.3 24.4 21.6 71 3.8 SE 39 46 21 25 1011.8 - 0.0
20/01:00pm 28.2 25.7 22.4 71 3.9 SE 39 43 21 23 1012.0 - 0.0
20/12:30pm 28.2 26.7 22.8 72 3.7 SE 35 43 19 23 1012.4 - 0.0
20/12:00pm 27.6 25.1 22.3 73 3.6 SE 39 46 21 25 1012.8 1012.8 0.0
20/11:30am 27.9 25.7 22.1 70 3.9 SE 37 43 20 23 1013.1 - 0.0
20/11:00am 27.7 24.8 21.6 69 4.1 SE 39 44 21 24 1013.5 - 0.0
20/10:30am 27.4 24.4 21.4 70 4.0 SE 39 43 21 23 1013.8 - 0.0
20/10:00am 27.7 24.7 21.4 68 4.2 SE 39 44 21 24 1014.0 - 0.0
20/09:30am 27.7 24.5 21.1 67 4.4 SE 39 46 21 25 1013.9 - 0.0
20/09:00am 27.3 24.5 21.1 69 4.1 SE 37 44 20 24 1013.7 1013.7 0.2
20/08:30am 27.1 24.7 21.1 69 4.0 SE 35 43 19 23 1013.7 - 0.2
20/08:00am 27.3 24.4 20.9 68 4.2 SE 37 44 20 24 1013.6 - 0.2
20/07:30am 26.4 23.4 20.6 70 3.8 SE 37 46 20 25 1013.4 - 0.2
20/07:00am 26.3 24.5 21.2 73 3.4 SE 32 39 17 21 1013.0 - 0.2
20/06:30am 25.8 23.5 21.3 76 3.0 SE 35 39 19 21 1012.7 - 0.2
20/06:00am 26.0 23.3 20.5 71 3.6 SE 35 41 19 22 1012.3 1012.3 0.2
20/05:30am 26.0 23.3 20.5 71 3.6 SE 35 43 19 23 1012.1 - 0.2
20/05:00am 25.9 23.2 20.4 71 3.6 SE 35 43 19 23 1011.8 - 0.2
20/04:30am 25.7 23.2 20.2 71 3.6 SE 33 37 18 20 1011.8 - 0.2
20/04:00am 25.8 23.1 19.3 67 4.2 ESE 32 37 17 20 1011.8 - 0.2
20/03:30am 25.7 23.6 19.7 69 3.9 ESE 30 35 16 19 1012.0 - 0.2
20/03:00am 25.8 22.4 17.7 61 5.1 ESE 32 35 17 19 1012.0 1012.0 0.2
20/02:30am 25.8 22.8 18.6 64 4.6 SE 32 37 17 20 1012.1 - 0.2
20/02:00am 26.0 22.7 19.3 66 4.3 ESE 35 41 19 22 1012.2 - 0.2
20/01:30am 26.0 23.3 19.7 68 4.1 ESE 33 41 18 22 1012.3 - 0.2
20/01:00am 26.0 23.1 19.3 66 4.3 ESE 33 41 18 22 1012.6 - 0.2
20/12:30am 25.9 23.5 19.2 66 4.3 ESE 30 35 16 19 1012.7 - 0.2
20/12:00am 26.0 23.2 18.3 62 4.9 ESE 30 35 16 19 1013.3 1013.3 0.2
 
Date/Time
EST
Temp
°C
App
Temp
°C
Dew
Point
Rel
Hum
%
Delta-T
°C
Wind Press
QNH
hPa
Press
MSL
hPa
Rain
since 9 am
mm
Dir
 
Spd
km/h
Gust
km/h
Spd
kts
Gust
kts
19/11:30pm 26.0 22.7 17.9 61 5.1 ESE 32 39 17 21 1013.4 - 0.2
19/11:00pm 26.1 22.3 17.1 57 5.6 ESE 33 39 18 21 1013.5 - 0.2
19/10:30pm 26.0 22.4 17.7 60 5.2 ESE 33 41 18 22 1013.7 - 0.2
19/10:00pm 26.1 22.8 18.4 62 4.9 ESE 33 39 18 21 1013.8 - 0.2
19/09:30pm 26.0 22.2 18.1 61 5.0 ESE 35 39 19 21 1013.8 - 0.2
19/09:00pm 26.0 22.6 18.1 61 5.0 ESE 33 39 18 21 1013.9 1013.9 0.2
19/08:30pm 26.1 22.3 17.3 58 5.5 ESE 33 39 18 21 1013.9 - 0.2
19/08:00pm 26.0 22.0 16.6 56 5.8 ESE 33 39 18 21 1013.6 - 0.2
19/07:30pm 26.0 22.0 16.8 57 5.7 ESE 33 39 18 21 1013.4 - 0.2
19/07:00pm 25.9 22.2 17.4 59 5.3 ESE 33 39 18 21 1013.0 - 0.2
19/06:30pm 25.9 22.4 17.8 61 5.1 SE 33 39 18 21 1012.7 - 0.2
19/06:00pm 25.9 22.0 16.9 57 5.6 ESE 33 43 18 23 1012.5 1012.5 0.2
19/05:30pm 26.0 22.3 17.4 59 5.4 ESE 33 39 18 21 1012.4 - 0.2
19/05:00pm 26.3 22.5 17.3 57 5.6 ESE 33 39 18 21 1012.1 - 0.2
19/04:30pm 26.6 22.8 17.3 56 5.8 SE 33 39 18 21 1012.1 - 0.2
19/04:00pm 26.6 23.0 17.7 58 5.6 SE 33 39 18 21 1012.0 - 0.0
19/03:30pm 27.4 24.0 17.6 55 6.2 SE 32 37 17 20 1011.9 - 0.0
19/03:00pm 27.7 24.3 17.7 54 6.3 ESE 32 39 17 21 1012.1 1012.1 0.0
19/02:30pm 27.9 24.7 18.2 55 6.2 ESE 32 37 17 20 1012.2 - 0.0
19/02:00pm 28.0 24.5 17.4 52 6.7 SE 32 37 17 20 1012.5 - 0.0
19/01:30pm 28.1 24.7 17.8 53 6.5 ESE 32 39 17 21 1012.8 - 0.0
19/01:00pm 28.3 25.2 18.3 54 6.4 ESE 32 35 17 19 1013.1 - 0.0
19/12:30pm 28.2 25.0 18.2 54 6.4 ESE 32 37 17 20 1013.4 - 0.0
19/12:00pm 28.1 25.6 18.8 57 6.0 ESE 30 35 16 19 1013.6 1013.6 0.0
19/11:30am 28.1 24.8 18.4 55 6.2 ESE 33 39 18 21 1014.1 - 0.0
19/11:00am 28.1 24.9 19.5 59 5.6 ESE 35 41 19 22 1014.5 - 0.0
19/10:30am 27.9 25.0 19.2 59 5.6 ESE 33 39 18 21 1014.8 - 0.0
19/10:00am 27.9 24.5 18.9 58 5.8 ESE 35 43 19 23 1014.9 - 0.0
19/09:30am 27.9 25.4 20.1 62 5.1 ESE 33 41 18 22 1015.0 - 0.0
19/09:00am 27.4 24.0 19.0 60 5.4 ESE 35 43 19 23 1014.8 1014.8 0.0
19/08:30am 27.1 23.9 19.5 63 4.9 ESE 35 41 19 22 1014.6 - 0.0
19/08:00am 26.8 23.5 19.2 63 4.9 ESE 35 41 19 22 1014.6 - 0.0
19/07:30am 26.6 23.2 19.0 63 4.9 ESE 35 43 19 23 1014.3 - 0.0
19/07:00am 26.4 22.9 18.7 62 4.9 ESE 35 43 19 23 1014.0 - 0.0
19/06:30am 25.9 22.1 18.0 61 5.0 SE 35 41 19 22 1013.9 - 0.0
19/06:00am 25.9 23.1 19.5 68 4.1 ESE 33 41 18 22 1013.7 1013.7 0.0
19/05:30am 25.8 22.8 19.1 66 4.3 ESE 33 39 18 21 1013.5 - 0.0
19/05:00am 25.8 22.7 18.9 65 4.4 ESE 33 37 18 20 1013.5 - 0.0
19/04:30am 25.8 22.9 18.9 65 4.4 ESE 32 37 17 20 1013.5 - 0.0
19/04:00am 26.0 23.4 19.5 67 4.2 ESE 32 39 17 21 1013.3 - 0.0
19/03:30am 25.9 23.1 19.5 68 4.1 ESE 33 39 18 21 1013.4 - 0.0
19/03:00am 25.9 23.1 19.4 67 4.2 ESE 33 39 18 21 1013.5 1013.5 0.0
19/02:30am 26.0 23.0 19.1 65 4.4 ESE 33 41 18 22 1013.6 - 0.0
19/02:00am 26.0 22.7 19.3 66 4.3 ESE 35 41 19 22 1013.8 - 0.0
19/01:30am 26.0 23.0 19.0 65 4.5 ESE 33 39 18 21 1014.1 - 0.0
19/01:00am 26.1 23.4 19.6 67 4.2 ESE 33 39 18 21 1014.3 - 0.0
19/12:30am 26.2 23.2 19.9 68 4.1 ESE 35 39 19 21 1014.6 - 0.0
19/12:00am 26.3 23.7 20.7 71 3.7 SE 35 41 19 22 1014.9 1014.9 0.0
 
Date/Time
EST
Temp
°C
App
Temp
°C
Dew
Point
Rel
Hum
%
Delta-T
°C
Wind Press
QNH
hPa
Press
MSL
hPa
Rain
since 9 am
mm
Dir
 
Spd
km/h
Gust
km/h
Spd
kts
Gust
kts
18/11:30pm 26.3 23.5 20.2 69 4.0 SE 35 43 19 23 1015.0 - 0.0
18/11:00pm 26.3 22.9 19.1 64 4.6 SE 35 41 19 22 1015.1 - 0.0
18/10:30pm 26.4 23.0 19.8 67 4.3 ESE 37 43 20 23 1015.0 - 0.0
18/10:00pm 26.4 23.5 20.8 71 3.7 SE 37 43 20 23 1015.1 - 0.0
18/09:30pm 26.4 23.2 20.3 69 4.0 SE 37 43 20 23 1015.0 - 0.0
18/09:00pm 26.4 23.7 20.4 69 3.9 SE 35 41 19 22 1015.0 1015.0 0.0
18/08:30pm 26.5 23.9 19.9 67 4.3 ESE 33 39 18 21 1015.0 - 0.0
18/08:00pm 26.5 23.0 19.7 66 4.4 ESE 37 43 20 23 1014.6 - 0.0
18/07:30pm 26.6 24.4 20.7 70 3.9 ESE 33 39 18 21 1014.3 - 0.0
18/07:00pm 26.5 24.1 19.9 67 4.3 ESE 32 37 17 20 1014.1 - 0.0
18/06:30pm 26.5 23.9 19.9 67 4.3 ESE 33 37 18 20 1013.7 - 0.0
18/06:00pm 26.4 23.0 19.1 64 4.7 ESE 35 41 19 22 1013.3 1013.3 0.0
18/05:30pm 26.5 23.8 19.7 66 4.4 SE 33 41 18 22 1013.0 - 0.0
18/05:00pm 26.8 24.0 19.5 64 4.7 ESE 33 39 18 21 1012.8 - 0.0
18/04:30pm 27.4 24.8 19.4 61 5.2 ESE 32 39 17 21 1012.5 - 0.0
18/04:00pm 27.7 25.6 20.6 65 4.7 ESE 32 37 17 20 1012.1 - 0.0
18/03:30pm 27.7 24.9 19.5 61 5.3 ESE 33 39 18 21 1011.9 - 0.0
18/03:00pm 27.9 25.7 20.3 63 5.0 ESE 32 39 17 21 1011.8 1011.8 0.0
18/02:30pm 28.0 25.5 20.2 62 5.1 ESE 33 37 18 20 1011.8 - 0.0
18/02:00pm 28.0 25.8 20.4 63 5.0 ESE 32 37 17 20 1012.0 - 0.0
18/01:30pm 28.3 26.0 20.1 61 5.4 ESE 32 39 17 21 1012.3 - 0.0
18/01:00pm 28.4 25.3 19.7 59 5.7 ESE 35 44 19 24 1012.4 - 0.0
18/12:30pm 28.3 25.5 20.2 61 5.3 ESE 35 41 19 22 1012.7 - 0.0
18/12:00pm 28.6 26.6 21.2 64 4.9 ESE 33 39 18 21 1012.9 1012.9 0.0
18/11:30am 28.2 24.9 20.1 61 5.3 ESE 37 44 20 24 1013.2 - 0.0
18/11:00am 28.1 24.6 20.5 63 5.0 ESE 39 44 21 24 1013.6 - 0.0
18/10:30am 27.5 23.9 20.2 64 4.8 ESE 39 44 21 24 1013.9 - 0.0
18/10:00am 28.2 24.7 20.5 63 5.1 ESE 39 46 21 25 1014.0 - 0.0
18/09:30am 27.9 24.1 20.5 64 4.9 ESE 41 46 22 25 1014.1 - 0.0
18/09:00am 27.3 23.7 20.9 68 4.2 ESE 41 46 22 25 1014.1 1014.1 0.0
18/08:30am 27.5 24.0 20.3 65 4.7 ESE 39 46 21 25 1014.2 - 0.0
18/08:00am 27.2 24.1 21.2 69 4.0 ESE 39 46 21 25 1014.0 - 0.0
18/07:30am 27.0 23.1 20.3 66 4.4 ESE 41 46 22 25 1013.7 - 0.0
18/07:00am 26.6 22.6 20.2 68 4.2 ESE 41 48 22 26 1013.4 - 0.0
18/06:30am 26.4 22.3 20.8 71 3.7 ESE 43 48 23 26 1013.1 - 0.0
18/06:00am 26.2 22.8 20.6 71 3.7 ESE 39 46 21 25 1013.0 1013.0 0.0
18/05:30am 26.2 22.7 21.1 73 3.4 ESE 41 48 22 26 1012.6 - 0.0
18/05:00am 26.2 22.4 20.6 71 3.7 ESE 41 48 22 26 1012.5 - 0.0
18/04:30am 26.2 22.6 20.9 72 3.5 ESE 41 46 22 25 1012.2 - 0.0
18/04:00am 26.2 22.6 20.2 69 3.9 ESE 39 44 21 24 1012.3 - 0.0
18/03:30am 26.3 23.0 20.8 71 3.6 ESE 39 44 21 24 1012.3 - 0.0
18/03:00am 26.2 22.9 20.9 72 3.5 ESE 39 48 21 26 1012.5 1012.5 0.0
18/02:30am 26.2 23.3 20.9 72 3.5 ESE 37 44 20 24 1012.8 - 0.0
18/02:00am 26.4 23.5 20.9 72 3.6 ESE 37 43 20 23 1013.0 - 0.0
18/01:30am 26.4 22.9 20.4 69 3.9 ESE 39 44 21 24 1013.3 - 0.0
18/01:00am 26.4 22.9 20.3 69 4.0 E 39 44 21 24 1013.6 - 0.0
18/12:30am 26.5 23.2 20.9 71 3.7 ESE 39 44 21 24 1014.2 - 0.0
18/12:00am 26.5 23.5 21.4 73 3.4 ESE 39 44 21 24 1014.6 1014.6 0.0
 
Date/Time
EST
Temp
°C
App
Temp
°C
Dew
Point
Rel
Hum
%
Delta-T
°C
Wind Press
QNH
hPa
Press
MSL
hPa
Rain
since 9 am
mm
Dir
 
Spd
km/h
Gust
km/h
Spd
kts
Gust
kts
17/11:30pm 26.5 23.9 21.5 74 3.3 ESE 37 43 20 23 1014.9 - 0.0
17/11:00pm 26.6 24.3 21.2 72 3.6 ESE 35 43 19 23 1015.0 - 0.0
17/10:30pm 26.6 23.6 21.3 72 3.5 ESE 39 46 21 25 1015.0 - 0.0
17/10:00pm 26.6 23.2 20.7 70 3.9 ESE 39 44 21 24 1015.0 - 0.0
17/09:30pm 26.7 23.9 21.1 71 3.7 ESE 37 44 20 24 1015.1 - 0.0
17/09:00pm 26.7 23.4 20.9 70 3.8 ESE 39 46 21 25 1015.1 1015.1 0.0
17/08:30pm 26.8 23.6 21.7 73 3.4 ESE 41 46 22 25 1014.9 - 0.0
17/08:00pm 26.8 24.2 21.5 72 3.5 ESE 37 48 20 26 1014.7 - 0.0
17/07:30pm 26.8 23.9 21.5 72 3.5 ESE 39 46 21 25 1014.4 - 0.0
17/07:00pm 26.8 25.3 21.7 73 3.4 ESE 32 39 17 21 1014.0 - 0.0

Other Formats:

Comma delimited format used in spreadsheet applications
http://www.bom.gov.au/fwo/IDQ60801/IDQ60801.94299.axf

JavaScript Object Notation format (JSON) in row-major order
http://www.bom.gov.au/fwo/IDQ60801/IDQ60801.94299.json